Lexington RPC :: Columbia 1

liberation: 2021-09-11  09:30     latitude: 35.311517     longitude: -86.881000 39 birds
# LOFT PRING MILES ARRIVAL SPEED ToWin
1 Kastle Loft AU21-KAST-2176 228.962 2021-09-11 14:17:14.293 1402.922 00:00:00
2 Kastle Loft AU21-LKY-0300 228.962 2021-09-11 14:17:15.853 1402.795 00:00:02
3 Kastle Loft AU21-KAST-2107 228.962 2021-09-11 14:17:25.944 1401.974 00:00:12
4 Kastle Loft AU21-KAST-2155 228.962 2021-09-11 14:17:26.680 1401.914 00:00:12
5 Kastle Loft AU21-KAST-2153 228.962 2021-09-11 14:17:30.570 1401.598 00:00:16
6 Kastle Loft AU21-KAST-2181 228.962 2021-09-11 14:17:32.419 1401.448 00:00:18
7 Kastle Loft AU21-KAST-2111 228.962 2021-09-11 14:18:52.723 1394.955 00:01:38
8 Kastle Loft AU21-KAST-2196 228.962 2021-09-11 14:18:55.784 1394.708 00:01:41
9 Kastle Loft AU21-LKY-0296 228.962 2021-09-11 14:25:53.119 1361.922 00:08:39
10 Kastle Loft AU21-KAST-2182 228.962 2021-09-11 14:26:06.242 1360.916 00:08:52
11 Kastle Loft AU21-KAST-2124 228.962 2021-09-11 14:26:37.990 1358.489 00:09:24
12 Kastle Loft AU21-KAST-2172 228.962 2021-09-11 17:03:16.956 889.010 02:46:03
13 Tuttle Lane Loft AU21-LKY-0174 220.789 2021-09-11 16:48:52.776 885.409 02:41:54
14 Tuttle Lane Loft AU21-LKY-0276 220.789 2021-09-11 17:37:19.631 797.386 03:30:21
15 Kastle Loft AU21-KAST-2168 228.962 2021-09-11 18:23:59.659 754.639 04:06:45
16 Kastle Loft AU21-KAST-2100 228.962 2021-09-11 18:35:47.783 738.321 04:18:33
17 Tuttle Lane Loft AU21-LKY-0246 220.789 2021-09-12 11:46:45.468 409.640 11:11:37
18 Tuttle Lane Loft AU21-LKY-0232 220.789 2021-09-12 13:24:55.948 371.221 12:49:48
19 Tuttle Lane Loft AU21-LKY-0175 220.789 2021-09-12 14:12:01.526 355.240 13:36:53
Kastle Loft AU21-KAST-2117 0 0000-00-00 00:00:00.000 0.000 00:00:00
Kastle Loft AU21-KAST-2152 0 0000-00-00 00:00:00.000 0.000 00:00:00
Kastle Loft AU21-KAST-2169 0 0000-00-00 00:00:00.000 0.000 00:00:00
Kastle Loft AU21-KAST-2177 0 0000-00-00 00:00:00.000 0.000 00:00:00
Tuttle Lane Loft AU21-LKY-0015 0 0000-00-00 00:00:00.000 0.000 00:00:00
Tuttle Lane Loft AU21-LKY-0030 0 0000-00-00 00:00:00.000 0.000 00:00:00
Tuttle Lane Loft AU21-LKY-0037 0 0000-00-00 00:00:00.000 0.000 00:00:00
Tuttle Lane Loft AU21-LKY-0177 0 0000-00-00 00:00:00.000 0.000 00:00:00
Tuttle Lane Loft AU21-LKY-0201 0 0000-00-00 00:00:00.000 0.000 00:00:00
Tuttle Lane Loft AU21-LKY-0212 0 0000-00-00 00:00:00.000 0.000 00:00:00
Tuttle Lane Loft AU21-LKY-0216 0 0000-00-00 00:00:00.000 0.000 00:00:00
Tuttle Lane Loft AU21-LKY-0217 0 0000-00-00 00:00:00.000 0.000 00:00:00
Tuttle Lane Loft AU21-LKY-0225 0 0000-00-00 00:00:00.000 0.000 00:00:00
Tuttle Lane Loft AU21-LKY-0226 0 0000-00-00 00:00:00.000 0.000 00:00:00
Tuttle Lane Loft AU21-LKY-0227 0 0000-00-00 00:00:00.000 0.000 00:00:00
Tuttle Lane Loft AU21-LKY-0231 0 0000-00-00 00:00:00.000 0.000 00:00:00
Tuttle Lane Loft AU21-LKY-0237 0 0000-00-00 00:00:00.000 0.000 00:00:00
Tuttle Lane Loft AU21-LKY-0238 0 0000-00-00 00:00:00.000 0.000 00:00:00
Tuttle Lane Loft AU21-LKY-0243 0 0000-00-00 00:00:00.000 0.000 00:00:00
Tuttle Lane Loft AU21-LKY-0245 0 0000-00-00 00:00:00.000 0.000 00:00:00